createdAt,value
2022-09-20T00:00:36.309Z,92.74
2022-09-20T00:01:36.364Z,92.53
2022-09-20T00:02:36.308Z,92.38
2022-09-20T00:03:36.271Z,92.18
2022-09-20T00:04:36.357Z,92.53
2022-09-20T00:05:36.296Z,92.43
2022-09-20T00:06:36.274Z,92.53
2022-09-20T00:07:36.269Z,92.59
2022-09-20T00:08:36.239Z,92.12
2022-09-20T00:09:36.211Z,92.53
2022-09-20T00:10:36.231Z,92.43
2022-09-20T00:11:36.243Z,92.63
2022-09-20T00:12:36.183Z,92.02
2022-09-20T00:13:36.216Z,92.43
2022-09-20T00:14:36.180Z,92.94
2022-09-20T00:15:36.393Z,93.15
2022-09-20T00:16:36.223Z,93.19
2022-09-20T00:17:36.179Z,93.25
2022-09-20T00:18:36.148Z,93.39
2022-09-20T00:19:36.137Z,93.29
2022-09-20T00:20:36.166Z,93.70
2022-09-20T00:21:36.124Z,93.70
2022-09-20T00:22:36.093Z,93.70
2022-09-20T00:23:36.104Z,93.90
2022-09-20T00:24:36.074Z,93.39
2022-09-20T00:25:36.080Z,93.70
2022-09-20T00:26:36.051Z,93.60
2022-09-20T00:27:36.057Z,93.29
2022-09-20T00:28:36.064Z,93.49
2022-09-20T00:29:36.014Z,93.19
2022-09-20T00:30:36.007Z,93.29
2022-09-20T00:31:36.105Z,92.88
2022-09-20T00:32:35.973Z,93.49
2022-09-20T00:33:35.996Z,93.29
2022-09-20T00:34:35.981Z,93.39
2022-09-20T00:35:35.958Z,93.29
2022-09-20T00:36:35.953Z,93.49
2022-09-20T00:37:35.919Z,93.76
2022-09-20T00:38:36.925Z,93.60
2022-09-20T00:39:35.946Z,93.35
2022-09-20T00:40:36.012Z,92.94
2022-09-20T00:41:35.896Z,92.74
2022-09-20T00:42:35.915Z,92.78
2022-09-20T00:43:35.875Z,92.83
2022-09-20T00:44:35.888Z,92.94
2022-09-20T00:45:35.906Z,93.25
2022-09-20T00:46:35.850Z,93.04
2022-09-20T00:47:35.840Z,92.98
2022-09-20T00:48:35.835Z,93.19
2022-09-20T00:49:35.822Z,93.29
2022-09-20T00:50:35.837Z,93.39
2022-09-20T00:51:35.805Z,93.39
2022-09-20T00:52:35.788Z,92.94
2022-09-20T00:53:35.778Z,93.25
2022-09-20T00:54:35.778Z,92.94
2022-09-20T00:55:35.775Z,92.94
2022-09-20T00:56:35.767Z,93.29
2022-09-20T00:57:35.741Z,93.29
2022-09-20T00:58:35.740Z,93.60
2022-09-20T00:59:35.721Z,93.19
2022-09-20T01:00:35.711Z,93.80
2022-09-20T01:01:35.751Z,93.49
2022-09-20T01:02:35.766Z,93.39
2022-09-20T01:03:35.688Z,93.70
2022-09-20T01:04:35.680Z,93.70
2022-09-20T01:05:35.669Z,94.11
2022-09-20T01:06:35.664Z,93.70
2022-09-20T01:07:35.668Z,93.60
2022-09-20T01:08:35.633Z,93.90
2022-09-20T01:09:35.637Z,93.70
2022-09-20T01:10:35.603Z,93.60
2022-09-20T01:11:35.606Z,93.80
2022-09-20T01:12:35.600Z,94.11
2022-09-20T01:13:35.600Z,94.11
2022-09-20T01:14:35.575Z,93.60
2022-09-20T01:15:35.557Z,94.21
2022-09-20T01:16:35.647Z,93.90
2022-09-20T01:17:35.562Z,94.46
2022-09-20T01:18:35.571Z,94.15
2022-09-20T01:19:35.539Z,94.56
2022-09-20T01:20:35.515Z,95.18
2022-09-20T01:21:35.524Z,94.62
2022-09-20T01:22:35.560Z,94.73
2022-09-20T01:23:35.496Z,95.34
2022-09-20T01:24:35.503Z,95.34
2022-09-20T01:25:35.497Z,95.39
2022-09-20T01:26:35.439Z,95.03
2022-09-20T01:27:36.446Z,94.83
2022-09-20T01:28:35.446Z,95.24
2022-09-20T01:29:35.446Z,94.01
2022-09-20T01:30:35.419Z,94.62
2022-09-20T01:31:35.467Z,94.62
2022-09-20T01:32:35.420Z,93.90
2022-09-20T01:33:35.393Z,94.32
2022-09-20T01:34:35.388Z,93.90
2022-09-20T01:35:35.384Z,95.03
2022-09-20T01:36:35.369Z,94.62
2022-09-20T01:37:35.360Z,94.73
2022-09-20T01:38:35.340Z,94.93
2022-09-20T01:39:35.336Z,94.93
2022-09-20T01:40:35.384Z,94.52
2022-09-20T01:41:35.303Z,94.11
2022-09-20T01:42:35.297Z,94.27
2022-09-20T01:43:35.286Z,94.48
2022-09-20T01:44:35.260Z,94.32
2022-09-20T01:45:36.362Z,94.48
2022-09-20T01:46:35.258Z,94.27
2022-09-20T01:47:35.282Z,93.86
2022-09-20T01:48:35.239Z,93.90
2022-09-20T01:49:35.254Z,94.42
2022-09-20T01:51:07.167Z,93.86
2022-09-20T01:51:35.211Z,94.27
2022-09-20T01:52:35.201Z,94.17
2022-09-20T01:53:35.214Z,93.55
2022-09-20T01:54:35.185Z,93.76
2022-09-20T01:55:35.153Z,93.45
2022-09-20T01:56:35.154Z,93.86
2022-09-20T01:57:35.144Z,93.55
2022-09-20T01:58:35.146Z,93.66
2022-09-20T01:59:35.132Z,94.07
2022-09-20T02:00:35.121Z,93.86
2022-09-20T02:01:35.167Z,93.66
2022-09-20T02:02:35.128Z,93.66
2022-09-20T02:03:35.075Z,94.27
2022-09-20T02:04:35.083Z,93.66
2022-09-20T02:05:35.077Z,94.37
2022-09-20T02:06:35.067Z,93.66
2022-09-20T02:07:35.042Z,93.86
2022-09-20T02:08:35.034Z,93.86
2022-09-20T02:09:35.032Z,93.76
2022-09-20T02:10:35.037Z,93.55
2022-09-20T02:11:35.004Z,93.86
2022-09-20T02:12:34.998Z,94.27
2022-09-20T02:13:34.980Z,94.07
2022-09-20T02:14:35.979Z,94.27
2022-09-20T02:15:34.967Z,94.73
2022-09-20T02:16:35.096Z,94.58
2022-09-20T02:17:34.960Z,94.37
2022-09-20T02:18:34.931Z,94.58
2022-09-20T02:19:34.921Z,93.86
2022-09-20T02:20:34.928Z,94.21
2022-09-20T02:21:34.907Z,94.17
2022-09-20T02:22:34.904Z,94.48
2022-09-20T02:23:34.912Z,94.17
2022-09-20T02:24:34.878Z,94.32
2022-09-20T02:25:34.867Z,94.27
2022-09-20T02:26:34.878Z,94.27
2022-09-20T02:27:34.866Z,94.37
2022-09-20T02:28:34.875Z,94.68
2022-09-20T02:29:34.849Z,94.07
2022-09-20T02:30:34.856Z,94.07
2022-09-20T02:31:34.884Z,93.86
2022-09-20T02:32:34.810Z,93.66
2022-09-20T02:33:34.788Z,93.76
2022-09-20T02:34:34.781Z,93.25
2022-09-20T02:35:34.813Z,93.15
2022-09-20T02:36:34.757Z,93.45
2022-09-20T02:37:34.758Z,93.55
2022-09-20T02:38:34.736Z,93.39
2022-09-20T02:39:34.730Z,93.49
2022-09-20T02:40:34.871Z,94.21
2022-09-20T02:41:34.736Z,94.62
2022-09-20T02:42:34.708Z,94.11
2022-09-20T02:43:34.695Z,94.52
2022-09-20T02:44:34.698Z,93.85
2022-09-20T02:45:34.751Z,94.98
2022-09-20T02:46:34.677Z,94.77
2022-09-20T02:47:34.660Z,93.64
2022-09-20T02:48:34.658Z,94.77
2022-09-20T02:49:34.645Z,94.77
2022-09-20T02:50:34.624Z,94.67
2022-09-20T02:51:34.627Z,94.98
2022-09-20T02:52:34.608Z,94.46
2022-09-20T02:53:34.601Z,94.46
2022-09-20T02:54:34.586Z,95.07
2022-09-20T02:55:34.585Z,94.15
2022-09-20T02:56:34.581Z,94.01
2022-09-20T02:57:34.572Z,94.67
2022-09-20T02:58:34.543Z,94.67
2022-09-20T02:59:34.537Z,94.21
2022-09-20T03:00:34.537Z,94.26
2022-09-20T03:01:34.579Z,93.49
2022-09-20T03:02:34.544Z,93.80
2022-09-20T03:03:34.506Z,93.29
2022-09-20T03:04:34.509Z,93.70
2022-09-20T03:05:34.478Z,93.29
2022-09-20T03:06:34.475Z,93.29
2022-09-20T03:07:34.466Z,93.29
2022-09-20T03:08:34.463Z,93.49
2022-09-20T03:09:34.464Z,93.39
2022-09-20T03:10:34.450Z,92.98
2022-09-20T03:11:34.425Z,93.08
2022-09-20T03:12:34.433Z,92.98
2022-09-20T03:13:34.402Z,93.08
2022-09-20T03:14:34.399Z,92.88
2022-09-20T03:15:34.390Z,93.04
2022-09-20T03:16:34.438Z,92.43
2022-09-20T03:17:34.384Z,92.53
2022-09-20T03:18:34.355Z,92.43
2022-09-20T03:19:34.342Z,92.53
2022-09-20T03:20:34.341Z,92.74
2022-09-20T03:21:34.322Z,93.04
2022-09-20T03:22:34.334Z,92.74
2022-09-20T03:23:34.304Z,92.43
2022-09-20T03:24:34.304Z,92.53
2022-09-20T03:25:34.314Z,92.94
2022-09-20T03:26:34.282Z,92.43
2022-09-20T03:27:34.271Z,92.32
2022-09-20T03:28:34.253Z,92.53
2022-09-20T03:29:34.247Z,92.27
2022-09-20T03:30:34.260Z,92.43
2022-09-20T03:31:34.243Z,92.53
2022-09-20T03:32:34.232Z,92.63
2022-09-20T03:33:34.217Z,92.69
2022-09-20T03:34:34.201Z,92.79
2022-09-20T03:35:34.200Z,92.22
2022-09-20T03:36:34.195Z,92.63
2022-09-20T03:37:34.168Z,92.59
2022-09-20T03:38:34.172Z,92.38
2022-09-20T03:39:34.163Z,92.63
2022-09-20T03:40:34.219Z,92.43
2022-09-20T03:41:34.141Z,92.68
2022-09-20T03:42:34.108Z,92.88
2022-09-20T03:43:34.111Z,93.70
2022-09-20T03:44:34.098Z,93.70
2022-09-20T03:45:34.176Z,93.95
2022-09-20T03:46:34.072Z,94.56
2022-09-20T03:47:34.078Z,94.56
2022-09-20T03:48:34.061Z,94.26
2022-09-20T03:49:34.046Z,94.11
2022-09-20T03:50:34.058Z,94.32
2022-09-20T03:51:34.512Z,94.32
2022-09-20T03:52:35.036Z,94.52
2022-09-20T03:53:34.012Z,94.11
2022-09-20T03:54:34.010Z,94.01
2022-09-20T03:55:34.012Z,94.01
2022-09-20T03:56:34.014Z,93.39
2022-09-20T03:57:33.985Z,93.39
2022-09-20T03:58:33.973Z,93.29
2022-09-20T03:59:33.973Z,93.39
2022-09-20T04:00:33.968Z,93.39
2022-09-20T04:01:33.967Z,93.39
2022-09-20T04:02:33.999Z,93.39
2022-09-20T04:03:33.929Z,92.98
2022-09-20T04:04:33.922Z,93.08
2022-09-20T04:05:33.899Z,93.29
2022-09-20T04:06:33.884Z,93.60
2022-09-20T04:07:33.881Z,93.60
2022-09-20T04:08:37.941Z,93.90
2022-09-20T04:09:34.866Z,93.33
2022-09-20T04:10:33.857Z,93.49
2022-09-20T04:11:33.848Z,93.64
2022-09-20T04:12:33.819Z,94.36
2022-09-20T04:13:33.826Z,93.95
2022-09-20T04:14:33.863Z,93.64
2022-09-20T04:15:33.805Z,93.74
2022-09-20T04:16:33.813Z,94.15
2022-09-20T04:17:33.779Z,94.32
2022-09-20T04:18:33.765Z,94.46
2022-09-20T04:19:33.777Z,94.15
2022-09-20T04:20:33.743Z,94.46
2022-09-20T04:21:33.738Z,93.49
2022-09-20T04:22:33.730Z,93.70
2022-09-20T04:23:33.728Z,93.19
2022-09-20T04:24:33.709Z,94.62
2022-09-20T04:25:33.719Z,93.86
2022-09-20T04:26:33.695Z,93.49
2022-09-20T04:27:33.687Z,93.39
2022-09-20T04:28:33.669Z,93.25
2022-09-20T04:29:33.670Z,92.88
2022-09-20T04:30:33.710Z,93.19
2022-09-20T04:31:33.693Z,93.29
2022-09-20T04:32:33.631Z,93.19
2022-09-20T04:33:33.639Z,93.04
2022-09-20T04:34:33.634Z,93.19
2022-09-20T04:35:33.615Z,93.29
2022-09-20T04:36:33.601Z,93.29
2022-09-20T04:37:33.609Z,92.98
2022-09-20T04:38:33.573Z,93.19
2022-09-20T04:39:33.573Z,93.19
2022-09-20T04:40:33.601Z,93.29
2022-09-20T04:41:33.553Z,93.25
2022-09-20T04:42:33.561Z,93.45
2022-09-20T04:43:33.534Z,93.15
2022-09-20T04:44:33.521Z,92.94
2022-09-20T04:45:33.523Z,93.04
2022-09-20T04:46:33.508Z,93.04
2022-09-20T04:47:33.489Z,93.19
2022-09-20T04:48:33.515Z,93.08
2022-09-20T04:49:33.470Z,92.98
2022-09-20T04:50:33.455Z,92.98
2022-09-20T04:51:33.452Z,92.78
2022-09-20T04:52:33.449Z,93.04
2022-09-20T04:53:33.457Z,93.15
2022-09-20T04:54:33.424Z,93.29
2022-09-20T04:55:33.414Z,92.88
2022-09-20T04:56:33.407Z,93.08
2022-09-20T04:57:33.393Z,93.29
2022-09-20T04:58:33.392Z,93.70
2022-09-20T04:59:33.387Z,93.39
2022-09-20T05:00:33.369Z,93.39
2022-09-20T05:01:33.485Z,93.25
2022-09-20T05:02:33.414Z,92.98
2022-09-20T05:03:33.326Z,92.98
2022-09-20T05:04:33.341Z,92.88
2022-09-20T05:05:33.320Z,93.15
2022-09-20T05:06:33.324Z,92.94
2022-09-20T05:07:33.294Z,92.98
2022-09-20T05:08:33.291Z,93.25
2022-09-20T05:09:33.311Z,92.94
2022-09-20T05:10:33.269Z,93.08
2022-09-20T05:11:33.267Z,92.78
2022-09-20T05:12:33.249Z,92.43
2022-09-20T05:13:33.227Z,92.78
2022-09-20T05:14:33.254Z,92.78
2022-09-20T05:15:33.228Z,93.08
2022-09-20T05:16:33.251Z,92.78
2022-09-20T05:17:33.205Z,93.39
2022-09-20T05:18:33.186Z,93.39
2022-09-20T05:19:33.201Z,93.33
2022-09-20T05:20:33.174Z,93.39
2022-09-20T05:21:33.160Z,93.19
2022-09-20T05:22:33.152Z,93.33
2022-09-20T05:23:33.152Z,93.74
2022-09-20T05:24:33.162Z,94.11
2022-09-20T05:25:33.135Z,93.70
2022-09-20T05:26:33.115Z,93.74
2022-09-20T05:27:33.112Z,93.70
2022-09-20T05:28:33.090Z,93.60
2022-09-20T05:29:33.086Z,93.90
2022-09-20T05:30:33.072Z,93.29
2022-09-20T05:31:33.126Z,93.29
2022-09-20T05:32:33.049Z,93.29
2022-09-20T05:33:33.036Z,93.29
2022-09-20T05:34:33.043Z,93.60
2022-09-20T05:35:33.025Z,93.29
2022-09-20T05:36:34.711Z,94.07
2022-09-20T05:37:34.004Z,93.25
2022-09-20T05:38:33.000Z,92.94
2022-09-20T05:39:32.972Z,92.53
2022-09-20T05:40:33.024Z,92.43
2022-09-20T05:41:32.967Z,92.59
2022-09-20T05:42:32.970Z,92.43
2022-09-20T05:43:32.966Z,92.22
2022-09-20T05:44:32.928Z,92.12
2022-09-20T05:45:32.967Z,91.91
2022-09-20T05:46:32.909Z,92.12
2022-09-20T05:47:32.932Z,92.22
2022-09-20T05:48:32.888Z,92.32
2022-09-20T05:49:32.880Z,92.12
2022-09-20T05:50:32.879Z,92.27
2022-09-20T05:51:32.861Z,92.16
2022-09-20T05:52:32.870Z,92.12
2022-09-20T05:53:32.864Z,92.02
2022-09-20T05:54:32.835Z,92.47
2022-09-20T05:55:32.824Z,93.08
2022-09-20T05:56:32.842Z,92.57
2022-09-20T05:57:32.803Z,92.78
2022-09-20T05:58:32.797Z,92.83
2022-09-20T05:59:32.791Z,92.63
2022-09-20T06:00:32.778Z,93.04
2022-09-20T06:01:32.882Z,92.94
2022-09-20T06:02:32.831Z,93.35
2022-09-20T06:03:32.740Z,92.94
2022-09-20T06:04:32.733Z,93.04
2022-09-20T06:05:32.750Z,92.63
2022-09-20T06:06:32.970Z,92.43
2022-09-20T06:07:32.709Z,92.02
2022-09-20T06:08:32.712Z,92.12
2022-09-20T06:09:32.714Z,92.22
2022-09-20T06:10:32.675Z,92.12
2022-09-20T06:11:32.671Z,92.43
2022-09-20T06:12:32.661Z,92.12
2022-09-20T06:13:32.652Z,92.02
2022-09-20T06:14:32.659Z,92.53
2022-09-20T06:15:32.632Z,92.32
2022-09-20T06:16:32.663Z,92.22
2022-09-20T06:17:32.621Z,92.22
2022-09-20T06:18:32.596Z,92.32
2022-09-20T06:19:32.612Z,91.82
2022-09-20T06:20:32.578Z,91.91
2022-09-20T06:21:32.578Z,91.71
2022-09-20T06:22:32.569Z,92.12
2022-09-20T06:23:32.561Z,92.02
2022-09-20T06:24:32.552Z,92.12
2022-09-20T06:25:32.554Z,92.53
2022-09-20T06:26:32.541Z,92.43
2022-09-20T06:27:32.521Z,92.47
2022-09-20T06:28:32.535Z,92.57
2022-09-20T06:29:32.518Z,92.57
2022-09-20T06:30:32.543Z,92.68
2022-09-20T06:31:32.481Z,92.98
2022-09-20T06:32:32.486Z,93.08
2022-09-20T06:33:32.476Z,92.94
2022-09-20T06:34:32.451Z,92.74
2022-09-20T06:35:32.431Z,92.68
2022-09-20T06:36:32.436Z,92.06
2022-09-20T06:37:32.420Z,92.12
2022-09-20T06:38:32.425Z,92.27
2022-09-20T06:39:32.408Z,92.22
2022-09-20T06:40:32.410Z,92.53
2022-09-20T06:41:32.385Z,92.53
2022-09-20T06:42:32.374Z,92.53
2022-09-20T06:43:32.379Z,92.22
2022-09-20T06:44:32.374Z,92.63
2022-09-20T06:45:32.383Z,92.08
2022-09-20T06:46:32.336Z,92.02
2022-09-20T06:47:35.668Z,91.61
2022-09-20T06:48:32.314Z,91.91
2022-09-20T06:49:32.346Z,91.97
2022-09-20T06:50:32.301Z,92.08
2022-09-20T06:51:32.279Z,92.22
2022-09-20T06:52:32.303Z,92.02
2022-09-20T06:53:32.325Z,91.67
2022-09-20T06:54:32.252Z,91.67
2022-09-20T06:55:32.263Z,91.67
2022-09-20T06:56:32.254Z,92.02
2022-09-20T06:57:33.222Z,92.49
2022-09-20T06:58:32.216Z,92.08
2022-09-20T06:59:32.236Z,92.28
2022-09-20T07:00:32.221Z,92.18
2022-09-20T07:01:32.302Z,92.38
2022-09-20T07:02:32.192Z,91.97
2022-09-20T07:03:32.180Z,92.24
2022-09-20T07:04:32.152Z,92.24
2022-09-20T07:05:32.204Z,92.18
2022-09-20T07:06:32.141Z,91.87
2022-09-20T07:07:32.117Z,91.67
2022-09-20T07:08:32.125Z,91.77
2022-09-20T07:09:32.121Z,91.83
2022-09-20T07:10:32.125Z,92.18
2022-09-20T07:11:32.088Z,91.67
2022-09-20T07:12:32.075Z,92.18
2022-09-20T07:13:32.058Z,92.03
2022-09-20T07:14:33.048Z,92.28
2022-09-20T07:15:32.043Z,92.08
2022-09-20T07:16:32.135Z,91.87
2022-09-20T07:17:32.032Z,92.03
2022-09-20T07:18:32.023Z,91.87
2022-09-20T07:19:32.012Z,91.73
2022-09-20T07:20:31.997Z,92.08
2022-09-20T07:21:32.011Z,92.44
2022-09-20T07:22:31.971Z,92.03
2022-09-20T07:23:31.975Z,91.63
2022-09-20T07:24:31.957Z,91.93
2022-09-20T07:25:31.941Z,92.14
2022-09-20T07:26:31.950Z,91.78
2022-09-20T07:27:31.950Z,91.73
2022-09-20T07:28:31.915Z,91.93
2022-09-20T07:29:31.911Z,91.48
2022-09-20T07:30:31.900Z,91.78
2022-09-20T07:31:31.939Z,92.10
2022-09-20T07:32:31.886Z,92.19
2022-09-20T07:33:31.891Z,91.99
2022-09-20T07:34:31.853Z,91.89
2022-09-20T07:35:31.865Z,91.23
2022-09-20T07:36:31.843Z,91.58
2022-09-20T07:37:36.364Z,91.69
2022-09-20T07:38:32.842Z,91.13
2022-09-20T07:39:31.823Z,91.33
2022-09-20T07:40:31.877Z,91.33
2022-09-20T07:41:31.799Z,91.09
2022-09-20T07:42:31.790Z,90.68
2022-09-20T07:43:31.795Z,90.11
2022-09-20T07:44:31.755Z,89.97
2022-09-20T07:45:31.801Z,90.58
2022-09-20T07:46:31.740Z,90.47
2022-09-20T07:47:31.733Z,89.97
2022-09-20T07:48:31.751Z,89.25
2022-09-20T07:49:31.712Z,90.68
2022-09-20T07:50:31.701Z,90.43
2022-09-20T07:52:03.596Z,90.39
2022-09-20T07:52:31.681Z,88.59
2022-09-20T07:53:31.669Z,88.39
2022-09-20T07:54:31.689Z,89.41
2022-09-20T07:55:31.651Z,89.47
2022-09-20T07:56:31.638Z,89.06
2022-09-20T07:57:31.625Z,89.58
2022-09-20T07:58:31.618Z,89.47
2022-09-20T07:59:31.631Z,89.06
2022-09-20T08:00:31.601Z,88.85
2022-09-20T08:01:31.606Z,89.58
2022-09-20T08:02:31.598Z,89.58
2022-09-20T08:03:31.572Z,89.37
2022-09-20T08:04:31.591Z,89.26
2022-09-20T08:05:31.554Z,89.17
2022-09-20T08:06:31.546Z,88.85
2022-09-20T08:07:31.531Z,89.53
2022-09-20T08:08:31.533Z,89.63
2022-09-20T08:09:31.526Z,89.53
2022-09-20T08:10:31.546Z,89.69
2022-09-20T08:11:31.505Z,88.67
2022-09-20T08:14:32.481Z,88.47
2022-09-20T08:15:31.480Z,86.80
2022-09-20T08:16:31.522Z,87.30
2022-09-20T08:17:31.441Z,86.69
2022-09-20T08:18:31.423Z,87.10
2022-09-20T08:19:31.445Z,86.39
2022-09-20T08:20:31.409Z,86.51
2022-09-20T08:21:31.407Z,86.41
2022-09-20T08:22:31.401Z,86.57
2022-09-20T08:23:31.389Z,84.84
2022-09-20T08:24:31.390Z,84.64
2022-09-20T08:25:31.376Z,85.00
2022-09-20T08:26:31.353Z,84.90
2022-09-20T08:27:31.334Z,85.21
2022-09-20T08:28:31.331Z,83.78
2022-09-20T08:29:31.341Z,81.04
2022-09-20T08:30:31.318Z,81.04
2022-09-20T08:31:31.350Z,82.35
2022-09-20T08:32:31.290Z,82.15
2022-09-20T08:33:31.276Z,82.97
2022-09-20T08:34:31.295Z,82.56
2022-09-20T08:35:31.263Z,82.66
2022-09-20T08:36:36.103Z,82.35
2022-09-20T08:37:33.245Z,82.15
2022-09-20T08:40:33.271Z,82.52
2022-09-20T08:41:31.222Z,83.48
2022-09-20T08:42:37.813Z,79.30
2022-09-20T08:43:33.183Z,80.16
2022-09-20T08:44:35.259Z,82.09
2022-09-20T08:45:35.167Z,82.26
2022-09-20T08:46:32.200Z,81.13
2022-09-20T08:47:31.242Z,80.87
2022-09-20T08:48:31.142Z,81.04
2022-09-20T08:49:31.126Z,81.74
2022-09-20T08:50:31.115Z,81.65
2022-09-20T08:51:31.104Z,80.73
2022-09-20T08:52:36.333Z,82.46
2022-09-20T08:53:33.087Z,82.15
2022-09-20T08:54:32.095Z,82.76
2022-09-20T08:55:36.377Z,81.79
2022-09-20T08:56:32.048Z,82.56
2022-09-20T08:57:31.051Z,82.40
2022-09-20T08:58:31.034Z,82.70
2022-09-20T08:59:31.022Z,82.09
2022-09-20T09:00:31.016Z,82.40
2022-09-20T09:01:31.032Z,80.77
2022-09-20T09:02:31.002Z,82.19
2022-09-20T09:03:30.973Z,82.87
2022-09-20T09:04:30.966Z,82.19
2022-09-20T09:05:30.967Z,82.60
2022-09-20T09:06:30.964Z,83.82
2022-09-20T09:07:30.955Z,83.68
2022-09-20T09:08:30.952Z,83.37
2022-09-20T09:09:30.914Z,82.29
2022-09-20T09:10:30.916Z,83.58
2022-09-20T09:11:30.923Z,82.93
2022-09-20T09:12:30.892Z,82.01
2022-09-20T09:13:30.877Z,82.01
2022-09-20T09:14:30.866Z,81.51
2022-09-20T09:15:30.867Z,82.42
2022-09-20T09:16:35.282Z,82.01
2022-09-20T09:17:31.846Z,82.52
2022-09-20T09:18:31.653Z,83.74
2022-09-20T09:19:34.793Z,82.12
2022-09-20T09:20:31.832Z,83.34
2022-09-20T09:21:30.802Z,82.42
2022-09-20T09:22:30.786Z,82.73
2022-09-20T09:23:30.777Z,83.95
2022-09-20T09:24:30.775Z,83.23
2022-09-20T09:25:30.777Z,83.34
2022-09-20T09:26:30.751Z,84.45
2022-09-20T09:27:30.735Z,83.34
2022-09-20T09:28:30.729Z,82.12
2022-09-20T09:29:34.226Z,82.42
2022-09-20T09:30:31.715Z,82.66
2022-09-20T09:31:30.769Z,81.60
2022-09-20T09:32:30.683Z,81.10
2022-09-20T09:33:30.672Z,81.16
2022-09-20T09:34:30.664Z,82.24
2022-09-20T09:35:30.645Z,82.45
2022-09-20T09:36:30.664Z,80.58
2022-09-20T09:37:30.642Z,80.74
2022-09-20T09:38:30.622Z,79.12
2022-09-20T09:39:30.616Z,78.75
2022-09-20T09:40:30.647Z,80.51
2022-09-20T09:41:30.629Z,80.07
2022-09-20T09:42:30.591Z,79.56
2022-09-20T09:43:30.588Z,78.51
2022-09-20T09:44:30.570Z,79.22
2022-09-20T09:45:30.618Z,79.18
2022-09-20T09:46:30.563Z,80.50
2022-09-20T09:47:30.551Z,78.10
2022-09-20T09:48:30.527Z,80.44
2022-09-20T09:49:30.524Z,78.44
2022-09-20T09:50:30.517Z,78.81
2022-09-20T09:51:30.525Z,78.64
2022-09-20T09:52:30.491Z,79.16
2022-09-20T09:53:30.496Z,82.20
2022-09-20T09:54:30.475Z,81.59
2022-09-20T09:55:30.470Z,81.70
2022-09-20T09:56:30.460Z,81.84
2022-09-20T09:57:30.441Z,80.31
2022-09-20T09:58:30.455Z,82.14
2022-09-20T09:59:30.426Z,80.65
2022-09-20T10:00:30.414Z,81.30
2022-09-20T10:01:33.434Z,81.57
2022-09-20T10:02:30.466Z,83.03
2022-09-20T10:03:30.393Z,83.64
2022-09-20T10:04:30.369Z,83.50
2022-09-20T10:05:30.379Z,83.81
2022-09-20T10:06:30.346Z,85.53
2022-09-20T10:07:30.356Z,83.60
2022-09-20T10:08:30.339Z,82.59
2022-09-20T10:09:30.346Z,81.98
2022-09-20T10:10:30.321Z,81.33
2022-09-20T10:11:30.299Z,80.92
2022-09-20T10:12:30.289Z,80.62
2022-09-20T10:13:30.292Z,80.72
2022-09-20T10:14:30.272Z,80.68
2022-09-20T10:15:30.264Z,79.56
2022-09-20T10:16:30.316Z,79.09
2022-09-20T10:17:30.276Z,79.60
2022-09-20T10:18:30.229Z,81.63
2022-09-20T10:19:30.221Z,82.14
2022-09-20T10:20:30.208Z,82.34
2022-09-20T10:21:30.195Z,83.26
2022-09-20T10:22:30.196Z,82.24
2022-09-20T10:23:58.614Z,81.73
2022-09-20T10:24:32.169Z,82.07
2022-09-20T10:25:30.157Z,82.48
2022-09-20T10:26:30.180Z,81.95
2022-09-20T10:27:30.148Z,83.78
2022-09-20T10:28:30.125Z,84.56
2022-09-20T10:29:30.114Z,83.44
2022-09-20T10:30:30.133Z,84.72
2022-09-20T10:31:30.157Z,82.28
2022-09-20T10:32:30.083Z,81.06
2022-09-20T10:33:30.086Z,80.96
2022-09-20T10:34:30.096Z,81.26
2022-09-20T10:35:30.057Z,81.67
2022-09-20T10:36:30.058Z,81.53
2022-09-20T10:37:30.044Z,80.82
2022-09-20T10:38:30.032Z,82.04
2022-09-20T10:39:30.031Z,82.00
2022-09-20T10:40:30.083Z,81.02
2022-09-20T10:41:30.014Z,81.49
2022-09-20T10:42:30.044Z,82.10
2022-09-20T10:43:29.972Z,83.99
2022-09-20T10:44:29.993Z,82.94
2022-09-20T10:45:59.619Z,80.60
2022-09-20T10:46:33.237Z,77.15
2022-09-20T10:47:30.996Z,77.36
2022-09-20T10:48:29.937Z,77.93
2022-09-20T10:49:29.924Z,79.55
2022-09-20T10:50:29.932Z,80.32
2022-09-20T10:51:29.916Z,80.90
2022-09-20T10:52:29.889Z,77.99
2022-09-20T10:53:29.907Z,75.96
2022-09-20T10:54:29.871Z,75.90
2022-09-20T10:55:29.975Z,78.33
2022-09-20T10:56:29.866Z,81.78
2022-09-20T10:57:29.842Z,81.85
2022-09-20T10:58:29.849Z,79.45
2022-09-20T10:59:29.851Z,79.14
2022-09-20T11:00:29.839Z,78.03
2022-09-20T11:01:29.873Z,80.32
2022-09-20T11:02:29.907Z,80.02
2022-09-20T11:03:29.787Z,80.32
2022-09-20T11:04:29.770Z,77.79
2022-09-20T11:05:29.790Z,78.80
2022-09-20T11:06:29.756Z,75.83
2022-09-20T11:07:29.762Z,76.31
2022-09-20T11:08:29.728Z,74.35
2022-09-20T11:09:29.703Z,76.21
2022-09-20T11:10:30.709Z,77.47
2022-09-20T11:11:29.705Z,77.37
2022-09-20T11:12:29.720Z,79.20
2022-09-20T11:13:29.687Z,80.73
2022-09-20T11:14:29.700Z,80.16
2022-09-20T11:15:29.672Z,79.95
2022-09-20T11:16:29.709Z,79.75
2022-09-20T11:17:29.630Z,80.66
2022-09-20T11:18:30.656Z,82.26
2022-09-20T11:19:29.637Z,81.58
2022-09-20T11:20:29.633Z,81.58
2022-09-20T11:21:29.613Z,81.68
2022-09-20T11:22:30.589Z,83.11
2022-09-20T11:23:29.599Z,83.51
2022-09-20T11:24:29.567Z,82.56
2022-09-20T11:25:29.921Z,82.76
2022-09-20T11:26:30.569Z,82.56
2022-09-20T11:27:29.538Z,82.56
2022-09-20T11:28:29.541Z,83.48
2022-09-20T11:29:29.521Z,83.54
2022-09-20T11:30:29.535Z,84.90
2022-09-20T11:31:29.631Z,84.15
2022-09-20T11:32:29.501Z,83.44
2022-09-20T11:33:29.485Z,83.54
2022-09-20T11:34:29.472Z,83.23
2022-09-20T11:35:29.473Z,82.38
2022-09-20T11:36:29.467Z,80.76
2022-09-20T11:37:29.448Z,82.28
2022-09-20T11:38:29.471Z,82.24
2022-09-20T11:39:29.420Z,79.70
2022-09-20T11:40:29.497Z,80.72
2022-09-20T11:41:29.415Z,79.56
2022-09-20T11:42:29.419Z,79.86
2022-09-20T11:43:29.379Z,79.56
2022-09-20T11:44:29.359Z,80.64
2022-09-20T11:45:29.424Z,80.84
2022-09-20T11:46:29.348Z,81.52
2022-09-20T11:47:52.606Z,78.98
2022-09-20T11:48:31.332Z,78.71
2022-09-20T11:49:29.327Z,78.10
2022-09-20T11:50:29.311Z,80.40
2022-09-20T11:51:29.315Z,80.50
2022-09-20T11:52:29.289Z,80.57
2022-09-20T11:53:33.251Z,79.85
2022-09-20T11:54:30.272Z,80.30
2022-09-20T11:55:29.263Z,80.50
2022-09-20T11:56:29.269Z,80.06
2022-09-20T11:57:29.237Z,79.59
2022-09-20T11:58:29.241Z,78.17
2022-09-20T11:59:29.231Z,79.59
2022-09-20T12:00:29.225Z,80.30
2022-09-20T12:01:29.208Z,81.92
2022-09-20T12:02:29.278Z,79.28
2022-09-20T12:03:29.220Z,78.91
2022-09-20T12:04:32.975Z,80.64
2022-09-20T12:05:30.163Z,79.22
2022-09-20T12:06:29.148Z,79.86
2022-09-20T12:07:29.153Z,79.36
2022-09-20T12:08:29.137Z,77.94
2022-09-20T12:09:29.133Z,81.39
2022-09-20T12:10:29.127Z,80.03
2022-09-20T12:11:29.102Z,80.33
2022-09-20T12:12:29.116Z,81.56
2022-09-20T12:13:29.085Z,80.84
2022-09-20T12:14:29.076Z,80.33
2022-09-20T12:15:29.077Z,80.74
2022-09-20T12:16:29.084Z,82.10
2022-09-20T12:17:29.053Z,80.78
2022-09-20T12:18:29.031Z,80.58
2022-09-20T12:19:29.024Z,80.17
2022-09-20T12:20:29.018Z,81.09
2022-09-20T12:21:29.005Z,80.21
2022-09-20T12:22:28.984Z,79.39
2022-09-20T12:23:28.980Z,79.25
2022-09-20T12:24:28.977Z,81.19
2022-09-20T12:25:28.958Z,79.16
2022-09-20T12:26:28.945Z,80.19
2022-09-20T12:27:28.942Z,78.67
2022-09-20T12:28:28.924Z,77.89
2022-09-20T12:29:28.938Z,79.31
2022-09-20T12:30:28.914Z,76.17
2022-09-20T12:31:29.030Z,74.24
2022-09-20T12:32:28.916Z,76.47
2022-09-20T12:33:29.006Z,76.43
2022-09-20T12:34:28.869Z,73.80
2022-09-20T12:35:28.850Z,74.85
2022-09-20T12:36:28.865Z,75.52
2022-09-20T12:37:28.858Z,77.51
2022-09-20T12:38:28.822Z,78.83
2022-09-20T12:39:30.483Z,75.93
2022-09-20T12:40:29.907Z,76.43
2022-09-20T12:41:29.233Z,76.37
2022-09-20T12:42:28.787Z,77.89
2022-09-20T12:43:28.799Z,76.57
2022-09-20T12:44:28.765Z,76.03
2022-09-20T12:45:28.796Z,76.23
2022-09-20T12:46:28.749Z,76.13
2022-09-20T12:47:28.751Z,76.03
2022-09-20T12:48:28.743Z,76.23
2022-09-20T12:49:28.740Z,77.14
2022-09-20T12:50:28.703Z,76.23
2022-09-20T12:51:28.699Z,74.68
2022-09-20T12:52:28.699Z,74.98
2022-09-20T12:53:28.695Z,74.71
2022-09-20T12:54:28.699Z,73.80
2022-09-20T12:55:28.670Z,75.93
2022-09-20T12:56:28.666Z,74.71